createdAt,value
2023-06-30T00:01:38.712Z,97635.78
2023-06-30T00:04:05.883Z,97634.94
2023-06-30T00:06:33.560Z,97639.75
2023-06-30T00:09:00.652Z,97640.38
2023-06-30T00:11:27.821Z,97627.81
2023-06-30T00:13:56.502Z,97631.41
2023-06-30T00:16:23.717Z,97633.63
2023-06-30T00:18:50.903Z,97626.84
2023-06-30T00:21:17.996Z,97628.06
2023-06-30T00:23:45.101Z,97623.06
2023-06-30T00:26:12.221Z,97623.06
2023-06-30T00:28:39.310Z,97627.81
2023-06-30T00:31:06.544Z,97628.78
2023-06-30T00:33:33.690Z,97625.41
2023-06-30T00:36:00.788Z,97625.50
2023-06-30T00:38:27.898Z,97628.19
2023-06-30T00:40:55.073Z,97627.91
2023-06-30T00:43:22.153Z,97621.50
2023-06-30T00:45:49.248Z,97614.25
2023-06-30T00:48:18.710Z,97622.22
2023-06-30T00:50:46.121Z,97626.09
2023-06-30T00:53:14.076Z,97621.13
2023-06-30T00:55:41.649Z,97624.88
2023-06-30T00:58:09.573Z,97621.13
2023-06-30T01:00:36.994Z,97614.25
2023-06-30T01:03:31.932Z,97616.75
2023-06-30T01:06:03.740Z,97611.66
2023-06-30T01:08:35.675Z,97620.47
2023-06-30T01:11:03.316Z,97621.66
2023-06-30T01:13:32.553Z,97607.16
2023-06-30T01:16:00.123Z,97611.41
2023-06-30T01:18:28.176Z,97600.28
2023-06-30T01:20:57.087Z,97603.06
2023-06-30T01:23:39.409Z,97603.19
2023-06-30T01:26:07.109Z,97605.09
2023-06-30T01:28:34.907Z,97592.47
2023-06-30T01:31:02.508Z,97592.09
2023-06-30T01:33:29.668Z,97596.31
2023-06-30T01:35:56.939Z,97598.25
2023-06-30T01:38:24.238Z,97594.19
2023-06-30T01:40:51.629Z,97590.44
2023-06-30T01:43:19.003Z,97589.13
2023-06-30T01:45:46.697Z,97584.16
2023-06-30T01:48:14.397Z,97587.91
2023-06-30T01:50:41.532Z,97579.25
2023-06-30T01:53:08.619Z,97591.47
2023-06-30T01:55:36.482Z,97592.81
2023-06-30T01:58:04.228Z,97582.44
2023-06-30T02:00:31.520Z,97583.16
2023-06-30T02:02:58.854Z,97578.06
2023-06-30T02:05:26.102Z,97571.31
2023-06-30T02:07:53.236Z,97571.59
2023-06-30T02:10:20.737Z,97568.59
2023-06-30T02:12:48.063Z,97573.66
2023-06-30T02:15:15.179Z,97573.75
2023-06-30T02:17:42.592Z,97562.66
2023-06-30T02:20:13.615Z,97565.31
2023-06-30T02:22:40.739Z,97562.13
2023-06-30T02:25:08.131Z,97576.16
2023-06-30T02:27:36.536Z,97574.69
2023-06-30T02:30:08.752Z,97577.53
2023-06-30T02:32:39.858Z,97566.44
2023-06-30T02:35:07.878Z,97572.25
2023-06-30T02:37:35.533Z,97578.38
2023-06-30T02:40:02.747Z,97571.84
2023-06-30T02:42:29.812Z,97576.94
2023-06-30T02:44:56.982Z,97574.47
2023-06-30T02:47:24.379Z,97567.69
2023-06-30T02:49:51.676Z,97567.69
2023-06-30T02:52:18.860Z,97579.53
2023-06-30T02:54:47.060Z,97576.75
2023-06-30T02:57:14.326Z,97576.75
2023-06-30T02:59:41.618Z,97574.16
2023-06-30T03:02:09.654Z,97570.06
2023-06-30T03:04:38.672Z,97563.03
2023-06-30T03:07:05.878Z,97575.59
2023-06-30T03:09:33.105Z,97569.94
2023-06-30T03:12:00.201Z,97573.44
2023-06-30T03:14:27.562Z,97573.69
2023-06-30T03:16:54.854Z,97569.75
2023-06-30T03:19:22.067Z,97583.16
2023-06-30T03:21:49.269Z,97574.97
2023-06-30T03:24:16.410Z,97581.38
2023-06-30T03:26:43.578Z,97578.09
2023-06-30T03:29:10.765Z,97569.91
2023-06-30T03:31:37.872Z,97575.47
2023-06-30T03:34:05.171Z,97575.94
2023-06-30T03:36:32.353Z,97576.81
2023-06-30T03:38:59.513Z,97576.94
2023-06-30T03:41:28.066Z,97579.94
2023-06-30T03:43:55.367Z,97583.44
2023-06-30T03:46:22.514Z,97592.50
2023-06-30T03:48:49.605Z,97589.00
2023-06-30T03:51:16.738Z,97591.94
2023-06-30T03:53:43.844Z,97597.47
2023-06-30T03:56:11.217Z,97599.53
2023-06-30T03:58:38.303Z,97594.56
2023-06-30T04:01:06.537Z,97593.47
2023-06-30T04:03:34.440Z,97590.91
2023-06-30T04:06:01.628Z,97587.97
2023-06-30T04:08:30.262Z,97584.03
2023-06-30T04:10:57.555Z,97582.09
2023-06-30T04:13:24.668Z,97581.63
2023-06-30T04:15:51.742Z,97575.59
2023-06-30T04:18:18.830Z,97565.53
2023-06-30T04:20:46.116Z,97569.03
2023-06-30T04:23:13.242Z,97578.25
2023-06-30T04:25:40.515Z,97576.34
2023-06-30T04:28:07.591Z,97562.81
2023-06-30T04:30:34.674Z,97562.03
2023-06-30T04:33:01.822Z,97567.84
2023-06-30T04:35:29.224Z,97570.38
2023-06-30T04:37:56.353Z,97582.53
2023-06-30T04:40:23.429Z,97584.91
2023-06-30T04:42:50.604Z,97586.56
2023-06-30T04:45:19.084Z,97586.72
2023-06-30T04:47:46.551Z,97576.47
2023-06-30T04:50:13.660Z,97580.44
2023-06-30T04:52:40.720Z,97563.78
2023-06-30T04:55:08.036Z,97569.72
2023-06-30T04:57:35.173Z,97567.38
2023-06-30T05:00:02.292Z,97570.63
2023-06-30T05:02:29.487Z,97564.69
2023-06-30T05:04:56.610Z,97568.78
2023-06-30T05:07:23.747Z,97565.81
2023-06-30T05:09:50.951Z,97560.50
2023-06-30T05:12:18.098Z,97555.06
2023-06-30T05:14:45.180Z,97549.75
2023-06-30T05:17:12.581Z,97558.06
2023-06-30T05:19:39.820Z,97557.28
2023-06-30T05:22:07.245Z,97560.47
2023-06-30T05:24:34.604Z,97556.34
2023-06-30T05:27:02.420Z,97561.09
2023-06-30T05:29:31.727Z,97558.84
2023-06-30T05:31:59.138Z,97548.41
2023-06-30T05:34:26.585Z,97555.19
2023-06-30T05:36:55.709Z,97549.16
2023-06-30T05:39:25.625Z,97554.41
2023-06-30T05:41:52.763Z,97544.16
2023-06-30T05:44:20.015Z,97547.03
2023-06-30T05:46:47.275Z,97547.19
2023-06-30T05:49:14.495Z,97557.69
2023-06-30T05:51:41.651Z,97553.25
2023-06-30T05:54:10.266Z,97558.09
2023-06-30T05:56:37.384Z,97560.25
2023-06-30T05:59:04.529Z,97560.97
2023-06-30T06:01:31.675Z,97561.09
2023-06-30T06:03:58.936Z,97566.03
2023-06-30T06:06:26.137Z,97562.69
2023-06-30T06:08:53.204Z,97561.47
2023-06-30T06:11:20.436Z,97567.28
2023-06-30T06:13:47.539Z,97560.03
2023-06-30T06:16:14.651Z,97568.75
2023-06-30T06:18:41.916Z,97565.63
2023-06-30T06:21:09.085Z,97575.66
2023-06-30T06:23:36.156Z,97573.75
2023-06-30T06:26:03.538Z,97571.19
2023-06-30T06:28:30.618Z,97573.88
2023-06-30T06:30:57.855Z,97565.16
2023-06-30T06:33:24.994Z,97571.34
2023-06-30T06:35:52.851Z,97574.63
2023-06-30T06:38:20.623Z,97570.16
2023-06-30T06:40:48.231Z,97573.19
2023-06-30T06:43:15.475Z,97570.13
2023-06-30T06:45:43.086Z,97572.91
2023-06-30T06:48:28.773Z,97571.34
2023-06-30T06:51:00.819Z,97566.22
2023-06-30T06:53:35.505Z,97573.25
2023-06-30T06:56:04.243Z,97573.59
2023-06-30T06:58:36.703Z,97575.06
2023-06-30T07:01:03.988Z,97579.53
2023-06-30T07:03:31.375Z,97580.13
2023-06-30T07:05:59.004Z,97575.06
2023-06-30T07:08:27.551Z,97577.09
2023-06-30T07:10:54.703Z,97574.31
2023-06-30T07:13:22.876Z,97566.59
2023-06-30T07:15:50.374Z,97568.25
2023-06-30T07:18:21.399Z,97561.69
2023-06-30T07:20:49.447Z,97567.00
2023-06-30T07:23:16.789Z,97570.06
2023-06-30T07:25:45.012Z,97563.38
2023-06-30T07:28:12.556Z,97564.53
2023-06-30T07:30:43.953Z,97565.50
2023-06-30T07:33:12.028Z,97568.91
2023-06-30T07:35:39.435Z,97575.94
2023-06-30T07:38:06.526Z,97561.47
2023-06-30T07:40:50.604Z,97568.13
2023-06-30T07:43:21.108Z,97570.53
2023-06-30T07:45:48.313Z,97568.66
2023-06-30T07:48:15.803Z,97570.25
2023-06-30T07:50:50.791Z,97566.13
2023-06-30T07:53:26.438Z,97564.16
2023-06-30T07:55:53.719Z,97571.91
2023-06-30T07:58:20.833Z,97563.06
2023-06-30T08:00:47.912Z,97565.22
2023-06-30T08:03:15.226Z,97567.50
2023-06-30T08:05:42.785Z,97568.63
2023-06-30T08:08:10.297Z,97568.09
2023-06-30T08:10:39.516Z,97563.59
2023-06-30T08:13:07.517Z,97570.34
2023-06-30T08:15:34.754Z,97564.47
2023-06-30T08:18:01.986Z,97567.50
2023-06-30T08:20:37.613Z,97566.78
2023-06-30T08:23:04.861Z,97564.03
2023-06-30T08:25:31.922Z,97570.66
2023-06-30T08:27:59.093Z,97576.34
2023-06-30T08:30:26.299Z,97579.25
2023-06-30T08:32:55.756Z,97575.63
2023-06-30T08:35:23.588Z,97578.09
2023-06-30T08:37:53.555Z,97565.28
2023-06-30T08:40:26.677Z,97571.50
2023-06-30T08:42:54.734Z,97572.72
2023-06-30T08:45:25.216Z,97569.94
2023-06-30T08:47:52.886Z,97564.03
2023-06-30T08:50:22.695Z,97557.97
2023-06-30T08:52:49.942Z,97557.53
2023-06-30T08:55:17.103Z,97565.06
2023-06-30T08:57:45.339Z,97562.09
2023-06-30T09:00:12.954Z,97560.34
2023-06-30T09:02:40.244Z,97558.88
2023-06-30T09:05:08.462Z,97557.63
2023-06-30T09:07:43.333Z,97555.47
2023-06-30T09:10:10.908Z,97554.03
2023-06-30T09:12:40.705Z,97548.72
2023-06-30T09:15:08.776Z,97544.75
2023-06-30T09:17:36.208Z,97551.13
2023-06-30T09:20:03.575Z,97544.66
2023-06-30T09:22:51.471Z,97549.91
2023-06-30T09:25:27.015Z,97539.94
2023-06-30T09:27:55.165Z,97539.06
2023-06-30T09:30:35.630Z,97548.81
2023-06-30T09:33:03.231Z,97544.75
2023-06-30T09:35:40.304Z,97539.06
2023-06-30T09:38:18.774Z,97538.34
2023-06-30T09:40:47.722Z,97544.66
2023-06-30T09:43:19.932Z,97532.13
2023-06-30T09:45:50.847Z,97528.69
2023-06-30T09:48:18.102Z,97538.91
2023-06-30T09:50:45.252Z,97535.41
2023-06-30T09:53:12.527Z,97538.19
2023-06-30T09:55:59.877Z,97545.25
2023-06-30T09:58:27.063Z,97535.56
2023-06-30T10:00:54.263Z,97529.53
2023-06-30T10:03:21.848Z,97529.97
2023-06-30T10:05:49.967Z,97516.41
2023-06-30T10:08:24.128Z,97525.69
2023-06-30T10:10:54.392Z,97517.09
2023-06-30T10:13:22.049Z,97517.44
2023-06-30T10:15:50.007Z,97514.34
2023-06-30T10:18:18.436Z,97511.03
2023-06-30T10:20:48.734Z,97500.25
2023-06-30T10:23:19.299Z,97511.69
2023-06-30T10:25:46.915Z,97503.72
2023-06-30T10:28:15.023Z,97496.25
2023-06-30T10:30:42.659Z,97488.16
2023-06-30T10:33:09.847Z,97483.66
2023-06-30T10:35:37.465Z,97486.78
2023-06-30T10:38:04.898Z,97488.69
2023-06-30T10:40:31.976Z,97482.59
2023-06-30T10:42:59.381Z,97484.28
2023-06-30T10:45:31.034Z,97487.47
2023-06-30T10:47:58.174Z,97493.53
2023-06-30T10:50:25.457Z,97485.19
2023-06-30T10:52:56.229Z,97481.88
2023-06-30T10:55:24.227Z,97483.88
2023-06-30T10:57:53.030Z,97479.66
2023-06-30T11:00:23.016Z,97469.38
2023-06-30T11:02:55.290Z,97459.44
2023-06-30T11:05:23.742Z,97461.59
2023-06-30T11:07:55.263Z,97456.19
2023-06-30T11:10:29.063Z,97451.47
2023-06-30T11:12:57.214Z,97449.50
2023-06-30T11:15:42.902Z,97438.28
2023-06-30T11:18:16.780Z,97433.25
2023-06-30T11:21:00.668Z,97430.63
2023-06-30T11:23:29.961Z,97423.03
2023-06-30T11:25:58.998Z,97420.28
2023-06-30T11:28:26.639Z,97419.56
2023-06-30T11:30:55.626Z,97413.09
2023-06-30T11:33:22.827Z,97414.75
2023-06-30T11:35:54.340Z,97415.13
2023-06-30T11:38:21.499Z,97411.53
2023-06-30T11:40:50.957Z,97406.31
2023-06-30T11:43:23.170Z,97409.34
2023-06-30T11:46:00.841Z,97392.84
2023-06-30T11:48:39.603Z,97386.16
2023-06-30T11:51:07.068Z,97385.16
2023-06-30T11:53:34.265Z,97383.97
2023-06-30T11:56:02.921Z,97380.19
2023-06-30T11:58:30.085Z,97391.25
2023-06-30T12:00:57.672Z,97393.28
2023-06-30T12:03:24.850Z,97394.34
2023-06-30T12:05:58.989Z,97402.72
2023-06-30T12:08:31.813Z,97403.81
2023-06-30T12:10:59.057Z,97406.78
2023-06-30T12:13:29.056Z,97413.06
2023-06-30T12:15:57.557Z,97399.84
2023-06-30T12:18:38.305Z,97402.91
2023-06-30T12:21:13.144Z,97410.13
2023-06-30T12:23:46.954Z,97421.09
2023-06-30T12:26:14.501Z,97425.16
2023-06-30T12:28:43.094Z,97431.44
2023-06-30T12:31:10.289Z,97436.84
2023-06-30T12:33:37.460Z,97446.63
2023-06-30T12:36:07.726Z,97453.25
2023-06-30T12:38:35.112Z,97454.66
2023-06-30T12:41:02.683Z,97462.56
2023-06-30T12:43:29.921Z,97469.09
2023-06-30T12:45:57.184Z,97476.00
2023-06-30T12:48:24.419Z,97482.41
2023-06-30T12:50:51.561Z,97475.50
2023-06-30T12:53:19.222Z,97478.00
2023-06-30T12:55:46.405Z,97485.59
2023-06-30T12:58:13.496Z,97487.41
2023-06-30T13:00:40.601Z,97501.69
2023-06-30T13:03:09.686Z,97498.25
2023-06-30T13:05:37.595Z,97511.69
2023-06-30T13:08:04.830Z,97516.28
2023-06-30T13:10:31.945Z,97539.13
2023-06-30T13:12:59.982Z,97546.47
2023-06-30T13:15:27.177Z,97558.22
2023-06-30T13:17:54.582Z,97548.56
2023-06-30T13:20:21.757Z,97536.47
2023-06-30T13:23:08.133Z,97514.72
2023-06-30T13:25:35.955Z,97502.84
2023-06-30T13:28:03.315Z,97499.53
2023-06-30T13:30:30.401Z,97496.75
2023-06-30T13:32:57.522Z,97498.66
2023-06-30T13:35:24.713Z,97492.88
2023-06-30T13:37:52.396Z,97471.47
2023-06-30T13:40:19.925Z,97461.56
2023-06-30T13:42:47.087Z,97456.63
2023-06-30T13:45:14.725Z,97447.78
2023-06-30T13:47:42.130Z,97464.97
2023-06-30T13:50:09.563Z,97461.94
2023-06-30T13:52:36.698Z,97461.59
2023-06-30T13:55:04.238Z,97478.25
2023-06-30T13:57:31.388Z,97475.47
2023-06-30T13:59:58.510Z,97472.09
2023-06-30T14:02:25.677Z,97467.88
2023-06-30T14:04:54.291Z,97475.72
2023-06-30T14:07:22.950Z,97485.50
2023-06-30T14:09:50.039Z,97485.88
2023-06-30T14:12:17.181Z,97488.66
2023-06-30T14:14:45.235Z,97489.97
2023-06-30T14:17:13.531Z,97496.00
2023-06-30T14:19:40.623Z,97496.16
2023-06-30T14:22:07.741Z,97496.88
2023-06-30T14:24:34.851Z,97494.69
2023-06-30T14:27:01.999Z,97507.25
2023-06-30T14:29:29.127Z,97504.34
2023-06-30T14:31:56.236Z,97502.06
2023-06-30T14:34:24.087Z,97498.91
2023-06-30T14:36:51.514Z,97504.22
2023-06-30T14:39:18.581Z,97519.19
2023-06-30T14:41:57.281Z,97514.25
2023-06-30T14:44:29.083Z,97518.97
2023-06-30T14:46:56.310Z,97520.16
2023-06-30T14:49:23.547Z,97528.84
2023-06-30T14:51:50.626Z,97529.31
2023-06-30T14:54:17.742Z,97530.53
2023-06-30T14:56:44.848Z,97526.16
2023-06-30T14:59:11.930Z,97522.25
2023-06-30T15:01:39.041Z,97535.03
2023-06-30T15:04:06.254Z,97536.69
2023-06-30T15:06:33.487Z,97535.25
2023-06-30T15:09:00.594Z,97540.53
2023-06-30T15:11:28.686Z,97541.72
2023-06-30T15:13:55.804Z,97541.00
2023-06-30T15:16:24.259Z,97539.69
2023-06-30T15:18:51.371Z,97534.72
2023-06-30T15:21:18.460Z,97535.34
2023-06-30T15:23:45.536Z,97529.19
2023-06-30T15:26:12.673Z,97528.19
2023-06-30T15:28:39.873Z,97527.94
2023-06-30T15:31:06.979Z,97524.44
2023-06-30T15:33:34.327Z,97527.94
2023-06-30T15:36:01.505Z,97526.22
2023-06-30T15:38:28.590Z,97527.53
2023-06-30T15:40:59.800Z,97513.66
2023-06-30T15:43:30.705Z,97523.44
2023-06-30T15:45:57.958Z,97525.38
2023-06-30T15:48:25.269Z,97523.31
2023-06-30T15:50:52.414Z,97533.44
2023-06-30T15:53:19.550Z,97536.56
2023-06-30T15:55:47.884Z,97536.16
2023-06-30T15:58:16.209Z,97533.81
2023-06-30T16:00:43.357Z,97529.75
2023-06-30T16:03:10.737Z,97531.78
2023-06-30T16:05:38.112Z,97533.09
2023-06-30T16:08:05.587Z,97542.03
2023-06-30T16:10:32.715Z,97538.66
2023-06-30T16:12:59.866Z,97520.22
2023-06-30T16:15:26.983Z,97525.31
2023-06-30T16:17:54.264Z,97519.75
2023-06-30T16:20:21.459Z,97520.84
2023-06-30T16:22:48.535Z,97522.88
2023-06-30T16:25:15.667Z,97519.38
2023-06-30T16:27:42.873Z,97508.28
2023-06-30T16:30:21.147Z,97524.66
2023-06-30T16:32:48.912Z,97535.50
2023-06-30T16:35:16.353Z,97530.53
2023-06-30T16:37:43.980Z,97530.69
2023-06-30T16:40:12.013Z,97524.25
2023-06-30T16:42:43.045Z,97521.22
2023-06-30T16:45:10.844Z,97536.16
2023-06-30T16:47:38.136Z,97536.50
2023-06-30T16:50:06.164Z,97535.63
2023-06-30T16:52:35.077Z,97528.00
2023-06-30T16:55:02.974Z,97539.84
2023-06-30T16:57:30.079Z,97532.59
2023-06-30T16:59:58.278Z,97533.59
2023-06-30T17:02:25.545Z,97534.06
2023-06-30T17:04:52.854Z,97541.31
2023-06-30T17:07:20.052Z,97541.50
2023-06-30T17:09:47.293Z,97536.84
2023-06-30T17:12:15.011Z,97541.97
2023-06-30T17:14:42.146Z,97543.75
2023-06-30T17:17:09.335Z,97546.50
2023-06-30T17:19:36.547Z,97557.03
2023-06-30T17:22:03.836Z,97556.88
2023-06-30T17:24:31.002Z,97554.75
2023-06-30T17:26:58.111Z,97549.22
2023-06-30T17:29:25.646Z,97550.78
2023-06-30T17:31:52.772Z,97551.06
2023-06-30T17:34:19.856Z,97544.34
2023-06-30T17:36:46.927Z,97556.88
2023-06-30T17:39:14.280Z,97545.66
2023-06-30T17:41:41.484Z,97540.84
2023-06-30T17:44:08.635Z,97546.25
2023-06-30T17:46:35.833Z,97551.50
2023-06-30T17:49:28.859Z,97549.34
2023-06-30T17:51:56.472Z,97563.78
2023-06-30T17:54:23.704Z,97551.97
2023-06-30T17:56:51.235Z,97562.47
2023-06-30T17:59:18.327Z,97554.75
2023-06-30T18:01:46.063Z,97554.63
2023-06-30T18:04:14.579Z,97554.75
2023-06-30T18:07:11.498Z,97545.13
2023-06-30T18:09:41.343Z,97551.13
2023-06-30T18:12:08.957Z,97542.81
2023-06-30T18:14:36.834Z,97537.25
2023-06-30T18:17:04.246Z,97541.63
2023-06-30T18:19:32.038Z,97541.63
2023-06-30T18:21:59.158Z,97538.84
2023-06-30T18:24:26.318Z,97528.59
2023-06-30T18:26:53.433Z,97526.00
2023-06-30T18:29:23.582Z,97541.16
2023-06-30T18:31:52.405Z,97531.25
2023-06-30T18:34:20.352Z,97549.81
2023-06-30T18:36:47.549Z,97539.88
2023-06-30T18:39:14.986Z,97542.81
2023-06-30T18:41:43.256Z,97535.78
2023-06-30T18:44:10.343Z,97542.66
2023-06-30T18:46:37.586Z,97543.25
2023-06-30T18:49:05.751Z,97539.03
2023-06-30T18:51:32.998Z,97539.63
2023-06-30T18:54:00.167Z,97534.50
2023-06-30T18:56:29.988Z,97542.81
2023-06-30T18:59:01.362Z,97549.25
2023-06-30T19:01:28.872Z,97548.66
2023-06-30T19:03:56.539Z,97561.78
2023-06-30T19:06:25.187Z,97556.38
2023-06-30T19:08:54.545Z,97560.59
2023-06-30T19:11:22.160Z,97555.53
2023-06-30T19:13:49.625Z,97563.84
2023-06-30T19:16:16.850Z,97561.78
2023-06-30T19:18:44.036Z,97562.38
2023-06-30T19:21:11.163Z,97562.94
2023-06-30T19:23:39.166Z,97563.84
2023-06-30T19:26:06.379Z,97573.47
2023-06-30T19:28:34.029Z,97567.94
2023-06-30T19:31:01.211Z,97580.34
2023-06-30T19:33:31.384Z,97572.59
2023-06-30T19:35:59.953Z,97573.19
2023-06-30T19:38:27.698Z,97571.13
2023-06-30T19:40:55.599Z,97579.91
2023-06-30T19:43:23.216Z,97580.63
2023-06-30T19:45:50.672Z,97585.91
2023-06-30T19:48:19.917Z,97581.66
2023-06-30T19:50:47.074Z,97579.50
2023-06-30T19:53:14.422Z,97576.59
2023-06-30T19:55:41.572Z,97580.69
2023-06-30T19:58:10.712Z,97580.22
2023-06-30T20:00:39.066Z,97585.50
2023-06-30T20:03:06.577Z,97575.69
2023-06-30T20:05:33.861Z,97576.59
2023-06-30T20:08:01.019Z,97575.88
2023-06-30T20:10:28.147Z,97574.25
2023-06-30T20:12:55.350Z,97582.28
2023-06-30T20:15:22.541Z,97579.53
2023-06-30T20:17:49.668Z,97580.97
2023-06-30T20:20:17.021Z,97577.34
2023-06-30T20:22:44.165Z,97572.22
2023-06-30T20:25:11.439Z,97574.75
2023-06-30T20:27:39.696Z,97585.66
2023-06-30T20:30:08.967Z,97584.38
2023-06-30T20:32:36.184Z,97587.28
2023-06-30T20:35:03.418Z,97581.59
2023-06-30T20:37:30.572Z,97585.53
2023-06-30T20:39:57.651Z,97581.91
2023-06-30T20:42:24.865Z,97574.91
2023-06-30T20:44:51.965Z,97582.47
2023-06-30T20:47:19.176Z,97575.63
2023-06-30T20:49:46.336Z,97571.25
2023-06-30T20:52:14.505Z,97568.78
2023-06-30T20:54:41.639Z,97574.19
2023-06-30T20:57:08.757Z,97574.19
2023-06-30T20:59:35.881Z,97572.13
2023-06-30T21:02:03.307Z,97575.63
2023-06-30T21:04:30.491Z,97569.22
2023-06-30T21:06:57.643Z,97566.59
2023-06-30T21:09:24.725Z,97562.38
2023-06-30T21:11:52.008Z,97563.97
2023-06-30T21:14:21.384Z,97566.88
2023-06-30T21:16:48.995Z,97563.38
2023-06-30T21:19:16.857Z,97566.63
2023-06-30T21:21:44.225Z,97566.63
2023-06-30T21:24:11.404Z,97553.91
2023-06-30T21:26:39.405Z,97551.16
2023-06-30T21:29:06.760Z,97552.34
2023-06-30T21:31:33.905Z,97546.34
2023-06-30T21:34:01.072Z,97553.06
2023-06-30T21:36:28.204Z,97542.84
2023-06-30T21:38:55.369Z,97543.56
2023-06-30T21:41:23.101Z,97538.75
2023-06-30T21:43:50.281Z,97542.13
2023-06-30T21:46:17.552Z,97546.94
2023-06-30T21:48:44.850Z,97540.38
2023-06-30T21:51:12.015Z,97535.28
2023-06-30T21:53:39.140Z,97538.03
2023-06-30T21:56:06.354Z,97536.88
2023-06-30T21:58:33.533Z,97536.28
2023-06-30T22:01:00.869Z,97524.78
2023-06-30T22:03:28.241Z,97527.53
2023-06-30T22:05:56.333Z,97529.84
2023-06-30T22:08:26.373Z,97523.75
2023-06-30T22:10:53.680Z,97535.41
2023-06-30T22:13:20.968Z,97532.94
2023-06-30T22:15:48.179Z,97531.47
2023-06-30T22:18:16.409Z,97538.31
2023-06-30T22:20:43.486Z,97535.84
2023-06-30T22:23:10.627Z,97522.59
2023-06-30T22:25:38.573Z,97533.50
2023-06-30T22:28:05.643Z,97528.69
2023-06-30T22:30:32.736Z,97517.78
2023-06-30T22:32:59.844Z,97533.81
2023-06-30T22:35:27.063Z,97540.06
2023-06-30T22:37:54.170Z,97538.63
2023-06-30T22:40:21.513Z,97536.44
2023-06-30T22:42:49.047Z,97533.38
2023-06-30T22:45:16.165Z,97536.00
2023-06-30T22:47:43.342Z,97528.28
2023-06-30T22:50:10.695Z,97533.09
2023-06-30T22:52:39.562Z,97538.19
2023-06-30T22:55:07.754Z,97528.56
2023-06-30T22:57:34.892Z,97529.28
2023-06-30T23:00:02.192Z,97533.38
2023-06-30T23:02:29.356Z,97535.72
2023-06-30T23:04:56.537Z,97525.38
2023-06-30T23:07:23.843Z,97517.78
2023-06-30T23:09:51.122Z,97518.50
2023-06-30T23:12:18.280Z,97516.91
2023-06-30T23:14:45.474Z,97520.56
2023-06-30T23:17:16.694Z,97510.63
2023-06-30T23:19:48.696Z,97511.06
2023-06-30T23:22:16.826Z,97523.47
2023-06-30T23:24:47.827Z,97509.63
2023-06-30T23:27:15.499Z,97522.00
2023-06-30T23:29:45.608Z,97514.88
2023-06-30T23:32:16.555Z,97512.84
2023-06-30T23:34:44.119Z,97511.34
2023-06-30T23:37:13.615Z,97517.22
2023-06-30T23:39:41.211Z,97520.72
2023-06-30T23:42:09.146Z,97517.22
2023-06-30T23:44:36.522Z,97519.97
2023-06-30T23:47:05.840Z,97508.78
2023-06-30T23:49:33.176Z,97512.28
2023-06-30T23:52:00.442Z,97513.72
2023-06-30T23:54:27.537Z,97507.59
2023-06-30T23:56:54.638Z,97514.16
2023-06-30T23:59:21.943Z,97519.69
